Time;durP1;ratioP1;P1;durP2;ratioP2;P2;SDS_P1;SDS_P2;PMS_P1;PMS_P2;Temp;Humidity;BMP_temperature;BMP_pressure;BME280_temperature;BME280_humidity;BME280_pressure;Samples;Min_cycle;Max_cycle;Signal;HPM_P1;HPM_P2
2023/01/05 00:01:35;;;;;;;29.92;4.13;;;9.70;96.30;;;;;;5095274;27;20399;-92
2023/01/05 00:04:01;;;;;;;32.75;4.88;;;9.70;96.40;;;;;;5094560;27;20835;-91
2023/01/05 00:06:26;;;;;;;36.17;4.85;;;9.70;96.50;;;;;;5094317;27;20426;-92
2023/01/05 00:08:52;;;;;;;37.20;5.63;;;9.90;96.60;;;;;;5111531;27;20389;-91
2023/01/05 00:23:02;;;;;;;32.45;4.63;;;9.60;96.70;;;;;;5112021;27;20481;-92
2023/01/05 00:25:31;;;;;;;37.90;5.07;;;9.70;96.70;;;;;;5089717;27;20403;-90
2023/01/05 00:27:57;;;;;;;30.10;4.05;;;9.60;96.70;;;;;;5094688;27;20789;-91
2023/01/05 00:30:30;;;;;;;29.80;4.57;;;9.60;96.70;;;;;;5094424;27;20387;-92
2023/01/05 00:32:55;;;;;;;34.97;4.88;;;9.60;96.70;;;;;;5093829;27;20398;-92
2023/01/05 00:35:22;;;;;;;36.53;4.95;;;9.60;96.70;;;;;;5111470;27;20395;-91
2023/01/05 00:37:48;;;;;;;31.27;4.50;;;9.60;96.70;;;;;;5093863;27;20395;-91
2023/01/05 00:40:19;;;;;;;31.23;4.60;;;9.60;97.00;;;;;;5111653;27;20427;-90
2023/01/05 00:42:46;;;;;;;33.17;4.93;;;9.60;96.50;;;;;;5093438;27;20478;-92
2023/01/05 00:45:14;;;;;;;28.17;4.00;;;9.60;96.50;;;;;;5094070;27;20406;-92
2023/01/05 00:47:40;;;;;;;28.33;4.55;;;9.60;96.40;;;;;;5093677;27;20423;-91
2023/01/05 00:50:07;;;;;;;34.72;4.47;;;9.60;96.40;;;;;;5094133;27;20403;-93
2023/01/05 00:52:33;;;;;;;28.23;4.10;;;9.60;96.30;;;;;;5094048;27;20403;-91
2023/01/05 00:54:59;;;;;;;30.30;3.93;;;9.60;96.00;;;;;;5110578;27;20889;-90
2023/01/05 00:57:24;;;;;;;26.97;3.90;;;9.60;96.00;;;;;;5094110;27;20475;-93
2023/01/05 00:59:50;;;;;;;29.52;4.28;;;9.80;95.80;;;;;;5093316;27;20969;-90
2023/01/05 01:02:15;;;;;;;25.90;3.97;;;9.80;95.80;;;;;;5111118;27;20414;-90
2023/01/05 01:04:41;;;;;;;27.60;4.05;;;9.70;95.70;;;;;;5092624;27;20446;-90
2023/01/05 01:07:07;;;;;;;24.88;4.10;;;9.70;95.50;;;;;;5093407;27;20449;-91
2023/01/05 01:09:33;;;;;;;22.07;3.90;;;9.70;95.40;;;;;;5093731;27;20394;-92
2023/01/05 01:11:59;;;;;;;27.52;3.72;;;9.70;95.30;;;;;;5092827;27;20402;-90
2023/01/05 01:14:25;;;;;;;23.27;3.15;;;9.70;95.20;;;;;;5093547;27;20411;-89
2023/01/05 01:16:50;;;;;;;25.52;3.17;;;9.70;95.00;;;;;;5109414;27;20413;-89
2023/01/05 01:19:18;;;;;;;26.70;3.47;;;9.80;94.80;;;;;;5093978;27;20387;-94
2023/01/05 01:21:44;;;;;;;23.10;3.50;;;9.80;94.60;;;;;;5092886;27;20405;-90
2023/01/05 01:24:18;;;;;;;20.60;3.13;;;9.80;94.60;;;;;;5110622;27;20481;-91
2023/01/05 01:26:44;;;;;;;21.75;3.42;;;9.80;94.40;;;;;;5093472;27;20630;-90
2023/01/05 01:29:10;;;;;;;22.73;3.08;;;9.80;94.20;;;;;;5109938;27;20481;-94
2023/01/05 01:31:36;;;;;;;19.77;2.75;;;9.90;94.30;;;;;;5110720;27;20828;-91
2023/01/05 01:34:02;;;;;;;21.60;3.03;;;10.00;94.50;;;;;;5091931;27;20402;-90
2023/01/05 01:36:28;;;;;;;20.30;3.03;;;9.80;94.40;;;;;;5092864;27;20412;-92
2023/01/05 01:38:53;;;;;;;20.63;3.03;;;9.90;94.20;;;;;;5092735;27;20391;-90
2023/01/05 01:41:19;;;;;;;20.98;2.95;;;10.00;94.30;;;;;;5093204;27;20456;-91
2023/01/05 01:43:55;;;;;;;21.07;3.50;;;10.00;94.30;;;;;;5109285;27;20460;-90
2023/01/05 01:46:23;;;;;;;17.42;2.85;;;10.00;94.10;;;;;;5092161;27;20426;-91
2023/01/05 01:48:56;;;;;;;22.98;3.20;;;10.00;93.80;;;;;;5109633;27;20397;-91
2023/01/05 01:51:54;;;;;;;19.17;3.08;;;9.90;93.70;;;;;;5091930;27;20434;-88
2023/01/05 01:54:19;;;;;;;24.92;3.88;;;10.00;93.70;;;;;;5071640;27;20831;-89
2023/01/05 01:56:50;;;;;;;22.63;3.20;;;10.00;93.60;;;;;;5092508;27;20482;-91
2023/01/05 01:59:16;;;;;;;19.95;2.67;;;10.00;93.50;;;;;;5092401;27;20399;-89
2023/01/05 02:01:42;;;;;;;22.65;2.72;;;10.00;93.50;;;;;;5092646;27;20399;-89
2023/01/05 02:04:09;;;;;;;23.10;3.50;;;10.00;93.60;;;;;;5091962;27;20402;-92
2023/01/05 02:06:36;;;;;;;21.00;3.17;;;10.00;93.70;;;;;;5092880;27;20968;-92
2023/01/05 02:09:02;;;;;;;22.25;3.38;;;10.00;93.70;;;;;;5091675;27;20445;-91
2023/01/05 02:11:59;;;;;;;19.55;2.88;;;10.20;93.80;;;;;;5109539;27;20430;-91
2023/01/05 02:14:57;;;;;;;21.83;3.23;;;10.00;93.80;;;;;;5093041;27;20494;-89
2023/01/05 02:17:38;;;;;;;22.23;3.15;;;10.00;93.90;;;;;;5090659;27;20493;-92
2023/01/05 02:20:31;;;;;;;25.27;3.50;;;10.00;94.00;;;;;;5092858;27;21489;-91
2023/01/05 02:23:33;;;;;;;17.40;2.72;;;9.90;94.00;;;;;;5092684;27;20407;-92
2023/01/05 02:26:10;;;;;;;22.77;3.35;;;9.90;94.10;;;;;;5091819;27;20410;-90
2023/01/05 02:29:06;;;;;;;24.33;3.63;;;9.90;93.90;;;;;;5109358;28;20403;-92
2023/01/05 02:32:03;;;;;;;22.83;3.58;;;9.90;94.00;;;;;;5092324;28;20407;-88
2023/01/05 02:34:41;;;;;;;24.07;4.13;;;9.90;93.90;;;;;;5044475;28;20394;-91
2023/01/05 02:37:21;;;;;;;25.75;3.95;;;9.90;94.00;;;;;;5092750;28;20402;-91
2023/01/05 02:40:02;;;;;;;23.17;3.50;;;9.80;94.00;;;;;;5091891;28;20920;-90
2023/01/05 02:42:31;;;;;;;24.33;3.40;;;9.80;94.10;;;;;;5092404;28;20816;-90
2023/01/05 02:45:06;;;;;;;24.83;3.63;;;9.80;94.30;;;;;;5092085;28;21027;-91
2023/01/05 02:47:38;;;;;;;25.92;3.42;;;9.80;94.60;;;;;;5091260;28;20510;-91
2023/01/05 02:50:17;;;;;;;24.17;3.53;;;9.80;94.60;;;;;;5092681;28;20415;-92
2023/01/05 02:52:55;;;;;;;23.48;3.33;;;9.80;94.70;;;;;;5091422;28;20411;-93
2023/01/05 02:55:36;;;;;;;26.50;3.83;;;9.80;94.70;;;;;;5091982;28;20923;-92
2023/01/05 02:58:08;;;;;;;25.67;3.57;;;9.80;94.50;;;;;;5092348;28;20482;-91
2023/01/05 03:00:48;;;;;;;21.88;3.83;;;9.80;94.50;;;;;;5091292;28;20394;-91
2023/01/05 03:03:20;;;;;;;21.00;3.30;;;9.80;94.40;;;;;;5092318;28;20390;-90
2023/01/05 03:06:22;;;;;;;23.75;3.25;;;9.90;94.40;;;;;;5091243;28;20471;-91
2023/01/05 03:08:51;;;;;;;20.67;3.33;;;9.90;94.20;;;;;;5069716;28;20414;-89
2023/01/05 03:14:22;;;;;;;23.23;3.92;;;10.10;94.00;;;;;;5107712;28;20422;-91
2023/01/05 03:16:49;;;;;;;25.15;3.28;;;9.90;93.90;;;;;;5109382;28;20448;-91
2023/01/05 03:36:45;;;;;;;24.08;3.65;;;10.10;94.40;;;;;;5112090;27;20399;-90
2023/01/05 03:39:15;;;;;;;22.50;3.72;;;9.90;94.50;;;;;;5095133;27;20455;-91
2023/01/05 03:41:40;;;;;;;22.20;3.20;;;9.90;94.40;;;;;;5095766;27;20888;-89
2023/01/05 03:44:06;;;;;;;22.05;3.70;;;9.90;94.40;;;;;;5094231;27;20406;-92
2023/01/05 03:46:32;;;;;;;22.67;3.13;;;9.90;94.40;;;;;;5095637;27;20867;-90
2023/01/05 03:48:58;;;;;;;23.73;3.67;;;9.90;94.40;;;;;;5111698;27;20462;-91
2023/01/05 03:51:23;;;;;;;24.27;3.50;;;9.90;94.20;;;;;;5112233;27;20447;-89
2023/01/05 03:53:49;;;;;;;26.17;4.00;;;10.10;94.20;;;;;;5095089;27;20402;-90
2023/01/05 03:56:15;;;;;;;22.17;3.03;;;10.00;94.10;;;;;;5094610;27;20401;-90
2023/01/05 03:58:40;;;;;;;24.02;3.72;;;9.90;94.00;;;;;;5095481;27;20414;-89
2023/01/05 04:01:07;;;;;;;23.98;3.75;;;10.40;94.00;;;;;;5094888;27;20410;-91
2023/01/05 04:03:33;;;;;;;21.27;3.22;;;9.70;93.80;;;;;;5095077;27;20394;-92
2023/01/05 04:05:59;;;;;;;22.63;3.63;;;9.90;93.70;;;;;;5094007;27;20834;-88
2023/01/05 04:08:24;;;;;;;25.35;3.90;;;10.00;93.70;;;;;;5095136;27;20395;-91
2023/01/05 04:10:53;;;;;;;22.23;3.30;;;9.90;93.60;;;;;;5094694;27;20417;-90
2023/01/05 04:13:19;;;;;;;22.15;3.70;;;9.90;93.60;;;;;;5094595;27;20407;-89
2023/01/05 04:15:45;;;;;;;21.25;3.42;;;9.80;93.60;;;;;;5094744;27;20398;-88
2023/01/05 04:18:10;;;;;;;22.87;4.10;;;9.90;93.60;;;;;;5111403;27;20787;-91
2023/01/05 04:20:36;;;;;;;23.08;3.08;;;9.90;93.60;;;;;;5094829;27;20424;-91
2023/01/05 04:23:02;;;;;;;22.17;3.27;;;9.90;93.50;;;;;;5111081;27;20399;-91
2023/01/05 04:25:27;;;;;;;22.92;3.58;;;9.90;93.50;;;;;;5094572;27;20402;-89
2023/01/05 04:27:53;;;;;;;23.52;3.38;;;10.00;93.30;;;;;;5093860;27;20494;-90
2023/01/05 04:30:20;;;;;;;21.17;3.17;;;10.00;93.20;;;;;;5094356;27;20753;-91
2023/01/05 04:32:46;;;;;;;17.10;3.38;;;10.00;93.20;;;;;;5094251;27;20407;-90
2023/01/05 04:35:11;;;;;;;20.27;3.08;;;10.00;93.10;;;;;;5094115;27;20749;-93
2023/01/05 04:37:37;;;;;;;20.03;3.27;;;10.00;93.30;;;;;;5112038;27;20483;-90
2023/01/05 04:40:03;;;;;;;19.43;2.93;;;10.00;93.20;;;;;;5092893;27;20398;-91
2023/01/05 04:42:29;;;;;;;21.35;3.83;;;10.00;93.20;;;;;;5111242;27;20481;-92
2023/01/05 04:44:54;;;;;;;18.02;2.95;;;10.00;93.20;;;;;;5092779;27;20407;-90
2023/01/05 04:47:20;;;;;;;18.70;2.90;;;10.00;93.20;;;;;;5093842;27;20494;-91
2023/01/05 04:49:46;;;;;;;18.97;2.83;;;10.00;93.10;;;;;;5093454;27;21053;-88
2023/01/05 04:52:11;;;;;;;18.17;3.00;;;10.30;93.10;;;;;;5111304;27;20753;-91
2023/01/05 04:54:37;;;;;;;19.77;3.13;;;10.30;93.00;;;;;;5094123;27;20848;-90
2023/01/05 04:57:03;;;;;;;24.03;3.67;;;10.10;93.00;;;;;;5093289;27;20395;-91
2023/01/05 04:59:28;;;;;;;21.60;3.35;;;10.10;93.00;;;;;;5093914;27;20402;-92
2023/01/05 05:01:54;;;;;;;26.87;3.57;;;10.10;93.00;;;;;;5092656;27;20407;-90
2023/01/05 05:04:20;;;;;;;20.73;3.00;;;10.10;93.10;;;;;;5093847;27;20421;-91
2023/01/05 05:06:45;;;;;;;20.48;3.03;;;10.10;93.00;;;;;;5092759;27;20471;-91
2023/01/05 05:09:11;;;;;;;20.97;2.90;;;10.10;93.00;;;;;;5110753;27;20493;-91
2023/01/05 05:11:37;;;;;;;19.75;3.63;;;10.10;93.00;;;;;;5092843;27;20479;-89
2023/01/05 05:14:02;;;;;;;20.35;3.03;;;10.10;93.10;;;;;;5093561;27;20415;-91
2023/01/05 05:16:28;;;;;;;25.97;4.37;;;10.10;93.50;;;;;;5110217;27;20395;-91
2023/01/05 05:18:53;;;;;;;22.90;4.05;;;10.20;92.90;;;;;;5092839;27;20485;-90
2023/01/05 05:21:19;;;;;;;21.87;3.23;;;10.40;93.10;;;;;;5093638;27;20444;-90
2023/01/05 05:23:45;;;;;;;22.17;3.50;;;10.20;93.20;;;;;;5109609;27;20890;-90
2023/01/05 05:26:10;;;;;;;22.60;3.70;;;10.40;93.10;;;;;;5093516;27;20893;-90
2023/01/05 05:28:36;;;;;;;20.30;3.13;;;10.20;93.20;;;;;;5092827;27;20397;-91
2023/01/05 05:31:01;;;;;;;26.17;3.45;;;10.20;93.10;;;;;;5093508;27;20441;-90
2023/01/05 05:33:27;;;;;;;19.13;2.97;;;10.30;93.10;;;;;;5103053;27;20418;-90
2023/01/05 05:35:53;;;;;;;16.98;2.90;;;10.20;93.10;;;;;;5092976;27;20394;-90
2023/01/05 05:38:19;;;;;;;23.33;3.33;;;10.10;93.00;;;;;;5093073;27;20395;-89
2023/01/05 05:40:46;;;;;;;20.80;3.03;;;10.20;93.00;;;;;;5109229;27;20884;-90
2023/01/05 05:43:12;;;;;;;19.33;2.95;;;10.20;93.10;;;;;;5106068;27;20424;-92
2023/01/05 05:45:37;;;;;;;20.08;3.10;;;10.20;93.00;;;;;;5096102;27;20502;-91
2023/01/05 05:48:04;;;;;;;21.23;3.47;;;10.20;93.00;;;;;;5108855;27;20416;-93
2023/01/05 05:50:30;;;;;;;21.17;3.25;;;10.20;93.00;;;;;;5130744;27;20724;-90
2023/01/05 05:52:55;;;;;;;19.00;3.13;;;10.10;93.00;;;;;;5130428;27;20411;-92
2023/01/05 05:55:21;;;;;;;21.52;3.40;;;10.10;93.10;;;;;;5113172;27;20393;-88
2023/01/05 05:57:46;;;;;;;23.33;3.50;;;10.10;93.00;;;;;;5112563;27;20500;-89
2023/01/05 06:00:13;;;;;;;19.90;3.97;;;10.10;93.10;;;;;;5099585;27;20422;-92
2023/01/05 06:02:38;;;;;;;24.20;4.40;;;10.10;93.30;;;;;;5091388;27;20394;-92
2023/01/05 06:05:05;;;;;;;17.45;2.75;;;10.10;93.20;;;;;;5093166;27;20394;-90
2023/01/05 06:07:31;;;;;;;22.73;3.20;;;10.10;93.20;;;;;;5109089;27;20444;-91
2023/01/05 06:09:57;;;;;;;20.73;2.70;;;10.10;93.30;;;;;;5092194;27;20873;-89
2023/01/05 06:12:22;;;;;;;21.00;3.27;;;10.00;93.30;;;;;;5098162;27;20455;-91
2023/01/05 06:14:48;;;;;;;21.70;3.22;;;10.10;93.40;;;;;;5110311;27;20453;-90
2023/01/05 06:17:13;;;;;;;23.90;3.60;;;10.10;93.40;;;;;;5104607;27;20409;-90
2023/01/05 06:19:39;;;;;;;26.13;4.05;;;10.10;93.40;;;;;;5098351;27;20474;-92
2023/01/05 06:22:05;;;;;;;23.52;3.75;;;10.20;93.60;;;;;;5107512;27;20491;-92
2023/01/05 06:24:30;;;;;;;23.87;3.90;;;10.10;93.60;;;;;;5112180;27;20397;-90
2023/01/05 06:26:56;;;;;;;21.40;3.38;;;10.00;93.70;;;;;;5111480;27;20426;-91
2023/01/05 06:29:21;;;;;;;20.77;3.07;;;10.00;93.70;;;;;;5105999;28;20399;-90
2023/01/05 06:31:47;;;;;;;23.77;3.97;;;10.00;93.60;;;;;;5119027;27;20393;-91
2023/01/05 06:34:13;;;;;;;24.48;3.63;;;10.00;93.60;;;;;;5112610;27;20454;-90
2023/01/05 06:36:38;;;;;;;19.50;3.60;;;10.00;93.60;;;;;;5109101;27;20451;-90
2023/01/05 06:39:04;;;;;;;20.60;3.72;;;10.00;93.50;;;;;;5127032;27;20477;-91
2023/01/05 06:41:30;;;;;;;25.20;4.40;;;10.00;93.40;;;;;;5107913;28;20403;-91
2023/01/05 06:43:55;;;;;;;20.83;3.50;;;10.00;93.50;;;;;;5107477;28;20401;-90
2023/01/05 06:46:21;;;;;;;19.92;3.17;;;10.00;93.40;;;;;;5096584;28;20774;-91
2023/01/05 06:48:47;;;;;;;23.52;4.13;;;10.40;93.60;;;;;;5105122;27;20401;-90
2023/01/05 06:51:12;;;;;;;24.97;4.33;;;10.00;93.50;;;;;;5109763;27;20748;-91
2023/01/05 06:53:38;;;;;;;19.73;3.17;;;10.00;93.50;;;;;;5109777;27;20395;-91
2023/01/05 06:56:04;;;;;;;22.53;3.60;;;10.00;93.50;;;;;;5106525;28;20414;-91
2023/01/05 06:58:30;;;;;;;20.17;3.50;;;10.00;93.50;;;;;;5108378;28;20399;-89
2023/01/05 07:00:55;;;;;;;18.27;3.37;;;9.90;93.50;;;;;;5092484;28;20403;-90
2023/01/05 07:03:23;;;;;;;22.98;3.30;;;9.80;93.60;;;;;;5092975;27;20398;-92
2023/01/05 07:05:48;;;;;;;24.30;4.35;;;9.80;93.70;;;;;;5105979;27;20425;-92
2023/01/05 07:08:14;;;;;;;23.63;4.00;;;9.70;93.80;;;;;;5116059;27;20502;-90
2023/01/05 07:10:40;;;;;;;22.30;3.53;;;9.70;93.90;;;;;;5116894;27;20899;-92
2023/01/05 07:13:05;;;;;;;23.93;3.47;;;9.70;94.00;;;;;;5113117;27;21053;-91
2023/01/05 07:15:31;;;;;;;24.85;4.18;;;9.80;94.10;;;;;;5098386;27;20445;-93
2023/01/05 07:17:56;;;;;;;19.90;3.60;;;9.70;94.10;;;;;;5101617;27;20505;-93
2023/01/05 07:20:22;;;;;;;25.58;3.95;;;9.80;94.10;;;;;;5094914;27;20405;-92
2023/01/05 07:22:48;;;;;;;29.87;3.97;;;9.80;94.00;;;;;;5119798;27;20454;-92
2023/01/05 07:25:13;;;;;;;24.75;3.80;;;9.80;94.00;;;;;;5102504;27;20402;-92
2023/01/05 07:27:39;;;;;;;26.75;4.00;;;9.80;94.10;;;;;;5095665;27;20413;-92
2023/01/05 07:30:05;;;;;;;19.97;3.77;;;9.80;94.10;;;;;;5107787;27;20781;-91
2023/01/05 07:32:31;;;;;;;25.38;4.13;;;9.80;94.10;;;;;;5112251;27;20403;-91
2023/01/05 07:34:56;;;;;;;20.92;3.38;;;9.80;94.10;;;;;;5112068;27;20459;-91
2023/01/05 07:37:23;;;;;;;23.53;3.10;;;9.80;94.10;;;;;;5095312;27;20953;-90
2023/01/05 07:39:49;;;;;;;21.53;3.30;;;9.80;94.00;;;;;;5113019;27;20745;-91
2023/01/05 07:42:14;;;;;;;23.83;4.00;;;9.70;93.90;;;;;;5094150;27;20391;-89
2023/01/05 07:44:40;;;;;;;25.35;3.72;;;9.80;94.00;;;;;;5095583;27;20476;-91
2023/01/05 07:47:06;;;;;;;22.40;3.47;;;9.80;94.00;;;;;;5111646;27;20897;-90
2023/01/05 07:49:31;;;;;;;22.38;3.38;;;9.80;94.00;;;;;;5094730;27;20475;-90
2023/01/05 07:51:57;;;;;;;23.55;3.63;;;9.80;93.90;;;;;;5112659;27;20430;-88
2023/01/05 07:54:22;;;;;;;22.80;3.90;;;9.80;94.10;;;;;;5094984;27;20761;-90
2023/01/05 07:56:48;;;;;;;24.00;3.33;;;9.80;94.00;;;;;;5112180;27;20414;-91
2023/01/05 07:59:14;;;;;;;24.90;4.20;;;9.80;93.90;;;;;;5094776;27;20421;-90
2023/01/05 08:01:39;;;;;;;23.02;3.45;;;9.80;94.00;;;;;;5095840;27;20397;-95
2023/01/05 08:04:05;;;;;;;22.17;3.50;;;9.80;94.00;;;;;;5113830;27;20402;-89
2023/01/05 08:06:30;;;;;;;20.73;3.00;;;9.80;93.90;;;;;;5114284;27;20477;-93
2023/01/05 08:08:56;;;;;;;20.40;3.63;;;9.80;93.90;;;;;;5115030;27;20494;-92
2023/01/05 08:11:22;;;;;;;24.60;3.88;;;9.80;93.90;;;;;;5094879;27;20395;-92
2023/01/05 08:14:01;;;;;;;23.03;3.27;;;9.80;93.80;;;;;;5094895;27;21145;-91
2023/01/05 08:16:29;;;;;;;24.15;3.38;;;9.90;93.80;;;;;;5102183;27;20402;-90
2023/01/05 08:18:55;;;;;;;20.50;2.85;;;9.80;93.70;;;;;;5114249;27;20397;-89
2023/01/05 08:21:20;;;;;;;22.55;3.00;;;9.80;93.70;;;;;;5104048;27;20409;-89
2023/01/05 08:23:46;;;;;;;23.67;3.47;;;9.80;93.80;;;;;;5094414;27;20402;-91
2023/01/05 08:26:14;;;;;;;15.97;2.77;;;9.80;93.70;;;;;;5094315;27;20407;-91
2023/01/05 08:28:41;;;;;;;23.02;3.00;;;9.80;93.80;;;;;;5094705;27;20438;-91
2023/01/05 08:31:27;;;;;;;21.15;3.42;;;9.90;93.80;;;;;;5094318;27;20398;-91
2023/01/05 08:33:58;;;;;;;21.05;3.78;;;9.90;93.70;;;;;;5087421;27;20410;-91
2023/01/05 08:36:26;;;;;;;22.17;3.10;;;9.90;93.80;;;;;;5111749;27;20928;-90
2023/01/05 08:38:53;;;;;;;20.58;2.60;;;9.90;93.80;;;;;;5109836;27;20403;-90
2023/01/05 08:41:22;;;;;;;24.20;3.42;;;10.10;93.90;;;;;;5094261;27;20403;-91
2023/01/05 08:43:55;;;;;;;22.20;3.55;;;9.90;93.90;;;;;;5094162;27;20502;-91
2023/01/05 08:46:26;;;;;;;20.10;2.83;;;9.90;93.90;;;;;;5093273;27;20398;-92
2023/01/05 08:48:54;;;;;;;22.50;3.67;;;9.90;93.80;;;;;;5094747;27;20455;-91
2023/01/05 08:51:20;;;;;;;21.57;3.93;;;9.90;93.80;;;;;;5107830;27;20444;-92
2023/01/05 08:53:46;;;;;;;22.30;3.13;;;9.90;93.70;;;;;;5111364;27;20394;-91
2023/01/05 08:56:12;;;;;;;20.85;3.38;;;10.10;93.80;;;;;;5093435;27;20395;-90
2023/01/05 08:58:39;;;;;;;22.42;3.25;;;10.10;93.80;;;;;;5111523;27;20402;-91
2023/01/05 09:01:07;;;;;;;21.98;3.28;;;10.00;93.70;;;;;;5111089;27;20438;-91
2023/01/05 09:03:32;;;;;;;22.23;4.18;;;10.00;93.70;;;;;;5110826;27;20401;-90
2023/01/05 09:06:01;;;;;;;23.13;3.33;;;10.00;93.70;;;;;;5110976;27;20403;-91
2023/01/05 09:08:27;;;;;;;22.30;3.47;;;10.00;93.70;;;;;;5109877;27;20419;-92
2023/01/05 09:10:53;;;;;;;15.02;2.25;;;10.00;93.60;;;;;;5111272;27;20438;-92
2023/01/05 09:13:19;;;;;;;24.30;2.77;;;10.10;93.60;;;;;;5110324;27;20959;-91
2023/01/05 09:15:44;;;;;;;23.60;2.95;;;10.10;93.50;;;;;;5111106;27;20399;-92
2023/01/05 09:18:10;;;;;;;21.63;2.90;;;10.10;93.60;;;;;;5110271;27;20890;-93
2023/01/05 09:20:35;;;;;;;20.08;3.05;;;10.40;93.50;;;;;;5110669;27;20482;-91
2023/01/05 09:23:01;;;;;;;19.83;3.17;;;10.10;93.60;;;;;;5111008;27;20864;-90
2023/01/05 09:25:27;;;;;;;21.97;3.23;;;10.20;93.60;;;;;;5109549;28;20431;-92
2023/01/05 09:27:53;;;;;;;20.67;3.03;;;10.10;93.50;;;;;;5106507;27;20431;-91
2023/01/05 09:30:18;;;;;;;22.88;3.40;;;10.10;93.50;;;;;;5093049;27;20395;-90
2023/01/05 09:32:44;;;;;;;23.05;3.45;;;10.20;93.40;;;;;;5093235;27;20401;-90
2023/01/05 09:35:10;;;;;;;22.43;3.17;;;10.20;93.60;;;;;;5092294;27;20892;-89
2023/01/05 09:37:35;;;;;;;17.15;2.55;;;10.20;93.30;;;;;;5093050;27;20398;-90
2023/01/05 09:40:01;;;;;;;20.77;2.67;;;10.10;93.30;;;;;;5093074;27;20475;-91
2023/01/05 09:42:31;;;;;;;19.05;3.03;;;10.30;93.20;;;;;;5093068;27;20426;-92
2023/01/05 09:45:03;;;;;;;18.10;2.70;;;10.30;93.10;;;;;;5092594;27;20398;-89
2023/01/05 09:47:35;;;;;;;18.50;2.83;;;10.30;93.00;;;;;;5091797;27;20461;-92
2023/01/05 09:50:01;;;;;;;19.40;2.97;;;10.20;93.00;;;;;;5093031;27;20451;-89
2023/01/05 09:52:28;;;;;;;16.73;2.15;;;10.20;93.00;;;;;;5092070;27;20515;-91
2023/01/05 09:54:53;;;;;;;19.27;3.17;;;10.20;93.20;;;;;;5093181;27;20402;-88
2023/01/05 09:57:27;;;;;;;20.37;2.97;;;10.20;93.40;;;;;;5092633;27;20406;-90
2023/01/05 09:59:57;;;;;;;19.50;2.80;;;10.20;93.40;;;;;;5092170;27;20496;-90
2023/01/05 10:02:32;;;;;;;21.08;3.25;;;10.20;93.40;;;;;;5093089;27;20433;-91
2023/01/05 10:05:00;;;;;;;21.58;3.20;;;10.20;93.30;;;;;;5092023;27;20930;-91
2023/01/05 10:07:44;;;;;;;18.85;2.55;;;10.20;93.30;;;;;;5093026;27;20459;-91
2023/01/05 10:10:43;;;;;;;24.40;3.05;;;10.10;93.10;;;;;;5092318;27;20403;-90
2023/01/05 10:13:22;;;;;;;20.67;3.60;;;10.20;93.50;;;;;;5074008;27;20399;-91
2023/01/05 10:15:51;;;;;;;21.92;2.97;;;10.20;93.50;;;;;;5092883;27;20924;-91
2023/01/05 10:18:25;;;;;;;20.20;3.07;;;10.30;93.80;;;;;;5096191;27;20401;-91
2023/01/05 10:21:11;;;;;;;25.60;3.15;;;10.20;93.60;;;;;;5113670;27;20907;-90
2023/01/05 10:23:48;;;;;;;25.30;3.13;;;10.20;93.40;;;;;;5112881;27;20481;-91
2023/01/05 10:26:24;;;;;;;25.23;3.38;;;10.20;93.70;;;;;;5112297;27;20951;-91
2023/01/05 10:29:07;;;;;;;26.05;3.15;;;10.20;93.70;;;;;;5130452;27;20397;-91
2023/01/05 10:31:51;;;;;;;22.63;3.20;;;10.30;93.80;;;;;;5112319;27;20397;-92
2023/01/05 10:34:51;;;;;;;26.98;3.70;;;10.30;93.70;;;;;;5130056;27;20393;-91
2023/01/05 10:37:33;;;;;;;24.35;3.67;;;10.30;93.60;;;;;;5108242;27;20574;-90
2023/01/05 10:40:36;;;;;;;22.88;3.80;;;10.30;93.70;;;;;;5116552;27;20424;-91
2023/01/05 10:43:01;;;;;;;25.60;3.15;;;10.40;93.60;;;;;;5117004;27;20771;-91
2023/01/05 10:45:29;;;;;;;22.17;3.47;;;10.40;93.50;;;;;;5116937;27;20409;-91
2023/01/05 10:47:56;;;;;;;18.45;3.15;;;10.40;93.70;;;;;;5116006;27;21064;-92
2023/01/05 10:50:38;;;;;;;23.50;3.55;;;10.50;93.50;;;;;;5117605;27;20476;-91
2023/01/05 10:53:18;;;;;;;25.77;3.33;;;10.50;93.50;;;;;;5116278;27;20855;-92
2023/01/05 10:56:05;;;;;;;21.35;2.95;;;10.60;93.50;;;;;;5134118;27;20781;-92
2023/01/05 10:58:39;;;;;;;16.05;2.45;;;10.60;93.10;;;;;;5112835;27;20395;-93
2023/01/05 11:01:21;;;;;;;21.30;2.60;;;10.60;93.00;;;;;;5096025;27;20611;-91
2023/01/05 11:03:49;;;;;;;18.10;2.58;;;10.70;92.80;;;;;;5096309;27;20421;-93
2023/01/05 11:06:21;;;;;;;17.83;3.17;;;10.60;92.40;;;;;;5095961;27;20410;-92
2023/01/05 11:08:47;;;;;;;21.95;2.60;;;10.70;92.80;;;;;;5113141;27;20403;-93
2023/01/05 11:11:22;;;;;;;20.85;3.25;;;10.70;92.90;;;;;;5096406;27;20410;-92
2023/01/05 11:13:49;;;;;;;18.73;2.85;;;10.80;92.60;;;;;;5095582;27;20422;-92
2023/01/05 11:16:16;;;;;;;19.35;3.33;;;10.80;92.50;;;;;;5096338;27;20475;-92
2023/01/05 11:18:45;;;;;;;19.35;2.80;;;10.80;92.40;;;;;;5109825;27;20436;-91
2023/01/05 11:21:23;;;;;;;20.10;2.27;;;10.80;92.20;;;;;;5110641;27;20410;-92
2023/01/05 11:23:57;;;;;;;21.63;2.92;;;10.90;92.30;;;;;;5095749;27;20478;-93
2023/01/05 11:26:34;;;;;;;17.57;2.43;;;10.80;92.30;;;;;;5109647;27;20389;-93
2023/01/05 11:29:12;;;;;;;16.75;2.30;;;10.90;92.10;;;;;;5095975;27;20426;-91
2023/01/05 11:31:41;;;;;;;14.82;1.70;;;11.00;92.00;;;;;;5102266;27;20391;-92
2023/01/05 11:34:25;;;;;;;14.17;2.23;;;11.00;92.00;;;;;;5106188;27;20813;-93
2023/01/05 11:37:06;;;;;;;16.37;2.00;;;11.00;91.70;;;;;;5099366;27;20439;-92
2023/01/05 11:39:38;;;;;;;13.00;1.70;;;11.10;92.20;;;;;;5100145;27;20401;-92
2023/01/05 11:42:18;;;;;;;17.47;2.10;;;11.20;91.70;;;;;;5096040;27;20407;-92
2023/01/05 11:45:03;;;;;;;14.77;1.88;;;11.50;92.00;;;;;;5094475;27;20458;-92
2023/01/05 11:47:32;;;;;;;16.13;2.00;;;11.40;91.30;;;;;;5095737;27;20793;-92
2023/01/05 11:50:13;;;;;;;15.60;2.20;;;11.60;91.60;;;;;;5094902;27;20399;-92
2023/01/05 11:52:38;;;;;;;15.03;2.87;;;11.50;91.10;;;;;;5094961;27;20433;-92
2023/01/05 11:55:19;;;;;;;16.17;2.45;;;11.70;91.40;;;;;;5107624;27;20524;-92
2023/01/05 11:57:50;;;;;;;16.33;2.60;;;11.60;91.40;;;;;;5114821;27;20783;-91
2023/01/05 12:00:47;;;;;;;16.05;2.67;;;11.60;91.10;;;;;;5115349;27;20389;-91
2023/01/05 12:03:21;;;;;;;15.80;2.85;;;11.50;91.10;;;;;;5115760;27;20409;-91
2023/01/05 12:05:57;;;;;;;19.08;2.38;;;11.50;91.20;;;;;;5115271;27;20776;-91
2023/01/05 12:08:38;;;;;;;19.57;2.73;;;11.40;91.30;;;;;;5115848;27;20782;-90
2023/01/05 12:11:03;;;;;;;16.40;3.33;;;11.40;91.10;;;;;;5131340;27;21050;-91
2023/01/05 12:13:50;;;;;;;18.77;2.38;;;11.40;91.10;;;;;;5109366;27;20400;-92
2023/01/05 12:16:35;;;;;;;16.60;2.80;;;11.30;90.90;;;;;;5095312;27;20435;-91
2023/01/05 12:19:14;;;;;;;19.80;3.03;;;11.30;91.30;;;;;;5094037;27;20406;-93
2023/01/05 12:22:10;;;;;;;16.00;2.53;;;11.30;91.50;;;;;;5095704;27;20417;-92
2023/01/05 12:24:57;;;;;;;16.77;2.47;;;11.30;91.60;;;;;;5095151;27;20414;-90
2023/01/05 12:27:38;;;;;;;16.17;2.97;;;11.30;91.60;;;;;;5094122;27;20430;-92
2023/01/05 12:30:32;;;;;;;19.25;3.00;;;11.20;91.80;;;;;;5095157;27;20490;-91
2023/01/05 12:33:10;;;;;;;17.85;2.90;;;11.20;91.30;;;;;;5094793;27;20483;-91
2023/01/05 12:35:54;;;;;;;14.68;2.53;;;11.20;91.60;;;;;;5094743;27;20498;-91
2023/01/05 12:38:59;;;;;;;16.73;2.53;;;11.20;91.60;;;;;;5111966;27;20764;-92
2023/01/05 12:41:42;;;;;;;15.95;2.20;;;11.30;91.50;;;;;;5094174;27;20415;-91
2023/01/05 12:44:49;;;;;;;16.25;2.50;;;11.20;91.30;;;;;;5094311;27;20407;-92
2023/01/05 12:47:32;;;;;;;15.35;2.60;;;11.20;91.40;;;;;;5006006;27;20521;-92
2023/01/05 12:50:35;;;;;;;17.65;3.00;;;11.20;91.50;;;;;;5094067;27;20410;-92
2023/01/05 12:53:09;;;;;;;19.98;3.85;;;11.30;91.80;;;;;;5094023;27;20560;-92
2023/01/05 12:55:42;;;;;;;17.20;3.13;;;11.10;91.60;;;;;;5094822;27;20519;-91
2023/01/05 12:58:22;;;;;;;18.65;3.47;;;11.30;92.00;;;;;;5110560;27;20391;-92
2023/01/05 13:00:49;;;;;;;20.77;3.43;;;11.10;91.70;;;;;;5093802;27;20406;-92
2023/01/05 13:03:29;;;;;;;19.98;2.63;;;11.10;92.30;;;;;;5110425;27;20502;-91
2023/01/05 13:05:54;;;;;;;19.65;2.90;;;11.10;91.80;;;;;;5094330;27;20901;-91
2023/01/05 13:08:30;;;;;;;19.38;2.63;;;11.10;92.00;;;;;;5094421;27;20418;-91
2023/01/05 13:11:05;;;;;;;19.00;2.83;;;11.10;92.00;;;;;;5093424;27;20399;-91
2023/01/05 13:13:38;;;;;;;21.50;3.03;;;11.10;92.20;;;;;;5094240;27;20413;-93
2023/01/05 13:16:44;;;;;;;16.30;2.47;;;11.10;92.00;;;;;;5093328;27;20421;-93
2023/01/05 13:19:25;;;;;;;19.40;2.70;;;11.10;91.70;;;;;;5092990;27;20414;-93
2023/01/05 13:21:53;;;;;;;16.13;2.35;;;11.10;91.90;;;;;;5110723;27;20402;-93
2023/01/05 13:24:26;;;;;;;22.02;3.17;;;11.20;92.00;;;;;;5092997;27;20999;-93
2023/01/05 13:26:52;;;;;;;19.90;2.60;;;11.10;92.20;;;;;;5093932;27;20429;-93
2023/01/05 13:29:49;;;;;;;20.27;3.08;;;11.10;92.40;;;;;;5092771;27;20455;-91
2023/01/05 13:32:39;;;;;;;21.48;2.65;;;11.10;92.20;;;;;;5072040;27;20413;-92